Time;durP1;ratioP1;P1;durP2;ratioP2;P2;SDS_P1;SDS_P2;PMS_P1;PMS_P2;Temp;Humidity;BMP_temperature;BMP_pressure;BME280_temperature;BME280_humidity;BME280_pressure;Samples;Min_cycle;Max_cycle;Signal;HPM_P1;HPM_P2
2023/01/28 16:04:04;;;;;;;16.85;8.38;;;1.00;99.90;;;;;;5083259;28;20735;-63
2023/01/28 16:06:45;;;;;;;18.90;8.00;;;0.90;99.90;;;;;;5073581;28;20562;-63
2023/01/28 16:09:25;;;;;;;13.18;6.95;;;1.00;99.90;;;;;;5052171;28;20021;-63
2023/01/28 16:11:51;;;;;;;15.43;7.63;;;1.00;99.90;;;;;;5048173;28;20033;-63
2023/01/28 16:14:23;;;;;;;17.15;8.20;;;1.10;99.90;;;;;;5048742;28;20072;-64
2023/01/28 16:16:49;;;;;;;16.73;7.82;;;1.20;99.90;;;;;;5048074;28;20150;-64
2023/01/28 16:19:39;;;;;;;15.80;7.78;;;1.20;99.90;;;;;;5048429;28;20021;-64
2023/01/28 16:22:06;;;;;;;16.90;7.75;;;1.30;99.90;;;;;;5052627;28;20043;-63
2023/01/28 16:24:37;;;;;;;17.23;8.45;;;1.40;99.90;;;;;;5066752;28;20025;-64
2023/01/28 16:27:08;;;;;;;13.15;6.72;;;1.50;99.90;;;;;;5064951;28;20025;-63
2023/01/28 16:29:34;;;;;;;19.80;9.40;;;1.60;99.90;;;;;;5049418;28;20450;-63
2023/01/28 16:32:02;;;;;;;17.88;9.40;;;1.70;99.90;;;;;;5029484;28;20056;-63
2023/01/28 16:34:28;;;;;;;18.88;9.80;;;1.80;99.90;;;;;;5028796;28;20021;-63
2023/01/28 16:37:00;;;;;;;16.55;8.50;;;1.90;99.90;;;;;;5047899;28;20113;-63
2023/01/28 16:39:26;;;;;;;17.88;9.15;;;2.10;99.90;;;;;;5047837;28;20022;-63
2023/01/28 16:41:52;;;;;;;16.95;9.85;;;2.20;99.90;;;;;;5047778;28;20435;-64
2023/01/28 16:44:18;;;;;;;20.20;11.23;;;2.30;99.90;;;;;;5048678;28;20040;-64
2023/01/28 16:46:43;;;;;;;18.27;9.50;;;2.30;99.90;;;;;;5047929;28;20021;-63
2023/01/28 16:49:10;;;;;;;17.70;8.70;;;2.40;99.90;;;;;;5059282;28;20552;-64
2023/01/28 16:51:39;;;;;;;16.77;8.35;;;2.40;99.90;;;;;;5073904;28;20093;-63
2023/01/28 16:54:05;;;;;;;15.55;8.38;;;2.40;99.90;;;;;;5087642;28;20025;-64
2023/01/28 16:56:32;;;;;;;16.30;8.48;;;2.40;99.90;;;;;;5070400;28;20060;-65
2023/01/28 16:58:58;;;;;;;14.88;8.25;;;2.50;99.90;;;;;;5063258;28;20025;-66
2023/01/28 17:01:24;;;;;;;15.63;8.07;;;2.50;99.90;;;;;;5047716;28;20463;-65
2023/01/28 17:03:50;;;;;;;15.32;7.75;;;2.60;99.90;;;;;;5027907;28;20099;-64
2023/01/28 17:06:18;;;;;;;22.95;11.68;;;2.60;99.90;;;;;;5028229;28;20112;-63
2023/01/28 17:08:44;;;;;;;29.08;16.75;;;2.60;99.90;;;;;;5044915;28;20013;-63
2023/01/28 17:11:10;;;;;;;24.92;12.90;;;2.70;99.90;;;;;;5047172;28;20021;-63
2023/01/28 17:13:36;;;;;;;23.50;12.80;;;2.70;99.90;;;;;;5023330;28;20474;-65
2023/01/28 17:16:02;;;;;;;24.42;12.95;;;2.70;99.90;;;;;;5034149;28;20113;-63
2023/01/28 17:18:28;;;;;;;33.92;16.83;;;2.70;99.90;;;;;;5016039;28;20018;-63
2023/01/28 17:21:09;;;;;;;30.85;17.13;;;2.80;99.90;;;;;;5024002;28;20044;-63
2023/01/28 17:23:35;;;;;;;30.10;15.50;;;2.80;99.90;;;;;;5014251;28;20030;-64
2023/01/28 17:26:09;;;;;;;26.52;15.20;;;2.80;99.90;;;;;;5013830;28;20494;-65
2023/01/28 17:28:35;;;;;;;29.75;15.10;;;2.80;99.90;;;;;;5013518;28;20065;-64
2023/01/28 17:31:05;;;;;;;24.98;13.50;;;2.80;99.90;;;;;;5013951;28;20026;-65
2023/01/28 17:33:32;;;;;;;25.02;12.63;;;2.80;99.90;;;;;;5013623;28;20021;-64
2023/01/28 17:36:00;;;;;;;26.60;14.52;;;2.80;99.90;;;;;;5014791;28;20040;-64
2023/01/28 17:38:26;;;;;;;24.45;12.65;;;2.80;99.90;;;;;;4996301;28;20117;-64
2023/01/28 17:40:52;;;;;;;25.25;13.77;;;2.80;99.90;;;;;;5026476;28;20036;-62
2023/01/28 17:43:17;;;;;;;20.73;12.65;;;2.80;99.90;;;;;;5031207;28;20037;-63
2023/01/28 17:45:43;;;;;;;20.98;10.85;;;2.80;99.90;;;;;;5013854;28;20371;-64
2023/01/28 17:48:09;;;;;;;19.80;10.90;;;2.80;99.90;;;;;;5029890;28;20459;-62
2023/01/28 17:50:38;;;;;;;17.67;9.70;;;2.80;99.90;;;;;;5016959;28;20072;-63
2023/01/28 17:53:04;;;;;;;15.75;9.35;;;2.80;99.90;;;;;;4995883;28;20483;-62
2023/01/28 17:55:29;;;;;;;19.98;10.40;;;2.80;99.90;;;;;;5022782;28;20101;-63
2023/01/28 17:57:55;;;;;;;23.63;13.25;;;2.80;99.90;;;;;;5023008;28;20084;-62
2023/01/28 18:00:21;;;;;;;28.70;15.20;;;2.80;99.90;;;;;;5014523;28;20048;-62
2023/01/28 18:02:51;;;;;;;30.20;15.85;;;2.80;99.90;;;;;;5012699;28;20042;-64
2023/01/28 18:05:16;;;;;;;25.02;13.27;;;2.70;99.90;;;;;;5014053;28;20026;-62
2023/01/28 18:07:43;;;;;;;26.58;12.60;;;2.70;99.90;;;;;;5013649;28;20037;-63
2023/01/28 18:10:09;;;;;;;22.95;11.43;;;2.70;99.90;;;;;;5012404;28;20030;-63
2023/01/28 18:12:34;;;;;;;25.27;13.18;;;2.70;99.90;;;;;;5013372;28;20491;-63
2023/01/28 18:15:00;;;;;;;22.27;12.30;;;2.70;99.90;;;;;;5002610;28;20021;-64
2023/01/28 18:17:28;;;;;;;24.80;12.98;;;2.70;99.90;;;;;;5016355;28;20490;-63
2023/01/28 18:19:55;;;;;;;25.88;13.98;;;2.70;99.90;;;;;;5013310;28;20022;-64
2023/01/28 18:22:20;;;;;;;28.15;13.93;;;2.60;99.90;;;;;;5013155;28;20061;-65
2023/01/28 18:24:46;;;;;;;23.38;13.00;;;2.70;99.90;;;;;;4995681;28;20477;-63
2023/01/28 18:27:12;;;;;;;28.02;14.23;;;2.70;99.90;;;;;;5012074;28;20010;-64
2023/01/28 18:29:38;;;;;;;27.88;13.70;;;2.60;99.90;;;;;;5022532;28;20044;-63
2023/01/28 18:32:04;;;;;;;33.08;16.00;;;2.70;99.90;;;;;;5032169;28;20037;-64
2023/01/28 18:34:31;;;;;;;32.03;15.18;;;2.70;99.90;;;;;;5031110;28;20029;-64
2023/01/28 18:36:57;;;;;;;29.88;15.63;;;2.70;99.90;;;;;;5032172;28;20009;-64
2023/01/28 18:39:25;;;;;;;27.45;14.35;;;2.70;99.90;;;;;;5012688;28;20533;-64
2023/01/28 18:41:53;;;;;;;26.70;13.98;;;2.70;99.90;;;;;;5032564;28;20025;-64
2023/01/28 18:44:20;;;;;;;25.70;14.43;;;2.70;99.90;;;;;;5014526;28;20076;-64
2023/01/28 18:46:45;;;;;;;22.50;12.68;;;2.70;99.90;;;;;;5032884;28;20021;-63
2023/01/28 18:49:11;;;;;;;25.58;14.73;;;2.70;99.90;;;;;;5032363;28;20418;-63
2023/01/28 18:51:37;;;;;;;27.13;13.98;;;2.70;99.90;;;;;;5030136;28;20382;-64
2023/01/28 18:54:05;;;;;;;26.83;15.10;;;2.70;99.90;;;;;;5031973;28;20029;-62
2023/01/28 18:56:32;;;;;;;31.00;16.08;;;2.70;99.90;;;;;;5032347;28;20028;-64
2023/01/28 18:59:00;;;;;;;27.80;15.00;;;2.70;99.90;;;;;;5031341;28;20449;-64
2023/01/28 19:01:27;;;;;;;27.70;16.27;;;2.70;99.90;;;;;;5032229;28;20013;-64
2023/01/28 19:03:57;;;;;;;27.80;14.15;;;2.70;99.90;;;;;;5013207;28;20046;-63
2023/01/28 19:06:23;;;;;;;24.95;12.90;;;2.70;99.90;;;;;;4995917;28;20036;-65
2023/01/28 19:08:54;;;;;;;23.98;12.30;;;2.70;99.90;;;;;;5012283;28;20108;-63
2023/01/28 19:11:21;;;;;;;24.67;13.93;;;2.70;99.90;;;;;;5012563;28;20022;-64
2023/01/28 19:13:47;;;;;;;25.42;14.30;;;2.80;99.90;;;;;;5011798;28;20091;-64
2023/01/28 19:16:13;;;;;;;27.77;14.68;;;2.80;99.90;;;;;;5012221;28;20363;-64
2023/01/28 19:18:39;;;;;;;23.50;12.68;;;2.80;99.90;;;;;;4995432;28;20025;-64
2023/01/28 19:21:06;;;;;;;28.70;14.52;;;2.70;99.90;;;;;;5011347;28;20033;-65
2023/01/28 19:23:32;;;;;;;28.80;15.35;;;2.80;99.90;;;;;;5012006;28;20334;-63
2023/01/28 19:26:02;;;;;;;29.92;15.88;;;2.80;99.90;;;;;;5011662;28;20026;-63
2023/01/28 19:28:32;;;;;;;27.83;13.90;;;2.80;99.90;;;;;;5012137;28;20494;-65
2023/01/28 19:30:58;;;;;;;26.50;14.45;;;2.80;99.90;;;;;;5012015;28;20053;-64
2023/01/28 19:33:24;;;;;;;25.10;12.77;;;2.70;99.90;;;;;;5012308;28;20108;-63
2023/01/28 19:35:59;;;;;;;25.75;13.85;;;2.80;99.90;;;;;;5011824;28;20475;-63
2023/01/28 19:38:28;;;;;;;26.55;14.00;;;2.80;99.90;;;;;;4994105;28;20029;-64
2023/01/28 19:40:53;;;;;;;22.90;11.50;;;2.70;99.90;;;;;;5011209;28;20027;-64
2023/01/28 19:43:19;;;;;;;25.48;12.95;;;2.80;99.90;;;;;;5016011;28;20036;-64
2023/01/28 19:45:59;;;;;;;23.10;12.35;;;2.70;99.90;;;;;;5031842;28;20029;-64
2023/01/28 19:48:25;;;;;;;24.08;13.30;;;2.80;99.90;;;;;;5031443;28;20053;-64
2023/01/28 19:50:51;;;;;;;27.75;14.02;;;2.80;99.90;;;;;;5021413;28;20022;-64
2023/01/28 19:53:17;;;;;;;26.45;13.45;;;2.80;99.90;;;;;;5011871;28;20033;-63
2023/01/28 19:55:43;;;;;;;27.25;14.65;;;2.80;99.90;;;;;;5011360;28;20036;-64
2023/01/28 19:58:09;;;;;;;24.75;13.38;;;2.80;99.90;;;;;;4993774;28;20109;-64
2023/01/28 20:00:35;;;;;;;28.52;14.23;;;2.80;99.90;;;;;;5011616;28;20010;-63
2023/01/28 20:03:05;;;;;;;25.48;13.60;;;2.80;99.90;;;;;;5010438;28;20045;-64
2023/01/28 20:05:30;;;;;;;26.48;12.73;;;2.70;99.90;;;;;;4996451;28;20068;-64
2023/01/28 20:07:56;;;;;;;22.25;12.85;;;2.80;99.90;;;;;;5011252;28;20022;-63
2023/01/28 20:10:22;;;;;;;20.65;12.45;;;2.80;99.90;;;;;;5011047;28;20030;-65
2023/01/28 20:12:48;;;;;;;28.98;13.38;;;2.80;99.90;;;;;;5011290;28;20112;-67
2023/01/28 20:15:13;;;;;;;28.33;13.98;;;2.70;99.90;;;;;;4993945;28;20459;-66
2023/01/28 20:17:39;;;;;;;24.20;12.63;;;2.80;99.90;;;;;;5014937;28;20029;-64
2023/01/28 20:20:05;;;;;;;24.17;13.70;;;2.80;99.90;;;;;;5011428;28;20022;-64
2023/01/28 20:22:32;;;;;;;23.40;12.85;;;2.70;99.90;;;;;;5011103;28;20112;-64
2023/01/28 20:24:58;;;;;;;25.60;13.27;;;2.70;99.90;;;;;;5011098;28;20033;-65
2023/01/28 20:27:24;;;;;;;25.42;12.48;;;2.70;99.90;;;;;;5014614;28;20433;-64
2023/01/28 20:29:51;;;;;;;22.98;12.07;;;2.70;99.90;;;;;;5012342;28;20033;-64
2023/01/28 20:32:17;;;;;;;24.75;12.98;;;2.70;99.90;;;;;;5031097;28;20117;-64
2023/01/28 20:34:43;;;;;;;26.73;13.88;;;2.70;99.90;;;;;;5013057;28;20033;-64
2023/01/28 20:37:09;;;;;;;25.27;12.98;;;2.80;99.90;;;;;;5012235;28;20378;-66
2023/01/28 20:39:35;;;;;;;26.17;13.07;;;2.80;99.90;;;;;;5013336;28;20025;-66
2023/01/28 20:42:01;;;;;;;23.65;12.18;;;2.80;99.90;;;;;;5011174;28;20156;-66
2023/01/28 20:44:31;;;;;;;27.80;13.50;;;2.80;99.90;;;;;;4992726;28;20511;-67
2023/01/28 20:47:00;;;;;;;26.20;12.70;;;2.80;99.90;;;;;;4993372;28;20022;-65
2023/01/28 20:49:27;;;;;;;24.42;13.20;;;2.80;99.90;;;;;;5012634;28;20018;-65
2023/01/28 20:51:52;;;;;;;22.08;11.60;;;2.70;99.90;;;;;;5013945;28;20029;-64
2023/01/28 20:54:19;;;;;;;22.42;12.20;;;2.70;99.90;;;;;;5015154;28;20559;-65
2023/01/28 20:56:49;;;;;;;25.17;12.85;;;2.70;99.90;;;;;;5015870;28;20030;-65
2023/01/28 20:59:15;;;;;;;23.98;12.18;;;2.70;99.90;;;;;;5032493;28;20025;-67
2023/01/28 21:01:41;;;;;;;24.55;13.55;;;2.70;99.90;;;;;;5017442;28;20032;-67
2023/01/28 21:04:08;;;;;;;27.67;13.13;;;2.70;99.90;;;;;;5053794;28;20021;-65
2023/01/28 21:06:38;;;;;;;24.60;12.82;;;2.70;99.90;;;;;;5053569;28;20421;-64
2023/01/28 21:09:04;;;;;;;21.38;11.75;;;2.70;99.90;;;;;;5030134;28;20423;-66
2023/01/28 21:11:30;;;;;;;22.63;12.60;;;2.70;99.90;;;;;;5016384;28;20026;-65
2023/01/28 21:13:56;;;;;;;24.80;11.95;;;2.70;99.90;;;;;;5015931;28;20046;-64
2023/01/28 21:16:22;;;;;;;29.45;13.18;;;2.70;99.90;;;;;;5016887;28;20036;-63
2023/01/28 21:18:49;;;;;;;23.98;11.60;;;2.70;99.90;;;;;;5045317;28;20393;-63
2023/01/28 21:21:21;;;;;;;23.38;11.88;;;2.70;99.90;;;;;;5038973;28;20017;-63
2023/01/28 21:23:46;;;;;;;;;;;2.70;99.90;;;;;;5036472;28;20045;-64
2023/01/28 21:26:14;;;;;;;22.55;11.43;;;2.70;99.90;;;;;;5024722;28;19956;-64
2023/01/28 21:28:41;;;;;;;22.38;11.77;;;2.70;99.90;;;;;;5016756;28;20536;-64
2023/01/28 21:31:09;;;;;;;21.80;10.85;;;2.60;99.90;;;;;;5033993;28;20475;-64
2023/01/28 21:33:35;;;;;;;20.33;11.23;;;2.60;99.90;;;;;;5033700;28;20030;-64
2023/01/28 21:36:06;;;;;;;22.27;11.43;;;2.60;99.90;;;;;;5016417;28;20022;-62
2023/01/28 21:38:32;;;;;;;19.23;10.47;;;2.70;99.90;;;;;;5045689;28;20104;-63
